Viimsi — ES2084 — position and weather

sailwx.info

Track history (hours):
 
Tides and Currents Weather Stations Pressure Air Temp Water Temp Dewpoint Dewpoint Depression Visibility Wind Speed Wind Dir Waves Ship Positions

Viimsi

Last reported at 2015-May-25 13:33 UTC. Time now 2015-May-25 23:43 UTC.
Position N 59°35' E 024°52'.

Length 78 m; draft 4.5 m.

Type: Ship. MMSI: 276297000.

Date/timePositionNaut miles runAvg speedWind from/ knotsBaromVisibWave heightAir tempDewpointWater temp
2015-May-25 13:33N 59°35' E 024°52'5 4.4
2015-May-25 12:29N 59°32' E 024°44'6 6.3
2015-May-25 11:33N 59°27' E 024°46'0 0.0
2015-May-25 10:33N 59°27' E 024°46'0 0.0
2015-May-25 09:33N 59°27' E 024°46'0 0.0
2015-May-25 08:27N 59°27' E 024°46'1 1.4
2015-May-25 07:30N 59°28' E 024°44'1 0.8
2015-May-25 06:33N 59°28' E 024°43'0 0.0
2015-May-25 05:32N 59°28' E 024°43'0 0.0
2015-May-25 04:33N 59°28' E 024°43'0 0.0
2015-May-25 03:33N 59°28' E 024°43'0 0.0
2015-May-25 02:33N 59°28' E 024°43'0 0.0
2015-May-25 01:33N 59°28' E 024°43'0 0.0
2015-May-25 00:33N 59°28' E 024°43'0 0.0
2015-May-24 23:33N 59°28' E 024°43'0 0.0
2015-May-24 22:33N 59°28' E 024°43'0 0.0
2015-May-24 21:33N 59°28' E 024°43'0 0.0
2015-May-24 20:33N 59°28' E 024°43'0 0.0
2015-May-24 19:33N 59°28' E 024°43'3 3.0
2015-May-24 18:33N 59°29' E 024°37'1 1.4
2015-May-24 17:33N 59°28' E 024°39'0 0.0
2015-May-24 16:33N 59°28' E 024°39'0 0.0
2015-May-24 15:33N 59°28' E 024°39'0 0.0
2015-May-24 14:30N 59°28' E 024°39'0 0.0
2015-May-24 13:33N 59°28' E 024°39'3 2.9
2015-May-24 12:33N 59°29' E 024°44'3 2.7
2015-May-24 11:25N 59°27' E 024°46'0 0.0
2015-May-24 10:33N 59°27' E 024°46'0 0.0
2015-May-24 09:24N 59°27' E 024°46'0 0.0
2015-May-24 08:27N 59°27' E 024°46'1 0.8
2015-May-24 07:32N 59°27' E 024°46'2 1.4
2015-May-24 06:25N 59°28' E 024°43'0 0.0
2015-May-24 05:24N 59°28' E 024°43'0 0.0
2015-May-24 04:20N 59°28' E 024°43'0 0.0
2015-May-24 03:33N 59°28' E 024°43'0 0.0
2015-May-24 02:33N 59°28' E 024°43'0 0.0
2015-May-24 01:33N 59°28' E 024°43'0 0.0
2015-May-24 00:33N 59°28' E 024°43'0 0.0
2015-May-23 23:33N 59°28' E 024°43'0 0.0
2015-May-23 22:33N 59°28' E 024°43'0 0.0
2015-May-23 21:33N 59°28' E 024°43'0 0.0
2015-May-23 20:33N 59°28' E 024°43'0 0.0
2015-May-23 19:33N 59°28' E 024°43'0 0.0
2015-May-23 18:33N 59°28' E 024°43'0 0.0
2015-May-23 17:33N 59°28' E 024°43'0 0.0
2015-May-23 16:33N 59°28' E 024°43'0 0.0
2015-May-23 15:33N 59°28' E 024°43'0 0.0
2015-May-23 14:33N 59°28' E 024°43'0 0.0
2015-May-23 13:33N 59°28' E 024°43'0 0.0
2015-May-23 12:33N 59°28' E 024°43'0 0.0
2015-May-23 11:33N 59°28' E 024°43'0 0.0
2015-May-23 10:33N 59°28' E 024°43'0 0.0
2015-May-23 09:33N 59°28' E 024°43'0 0.0
2015-May-23 08:33N 59°28' E 024°43'0 0.0
2015-May-23 07:33N 59°28' E 024°43'0 0.0
2015-May-23 06:33N 59°28' E 024°43'2 2.3
2015-May-23 05:33N 59°30' E 024°43'6 3.0
2015-May-23 03:33N 59°29' E 024°31'0 0.0
2015-May-23 02:33N 59°29' E 024°31'0 0.0
2015-May-23 01:33N 59°29' E 024°31'4 3.7
2015-May-23 00:33N 59°28' E 024°38'1 0.6
2015-May-22 23:33N 59°28' E 024°39'0 0.0
2015-May-22 22:33N 59°28' E 024°39'0 0.0
2015-May-22 21:33N 59°28' E 024°39'0 0.0
2015-May-22 20:33N 59°28' E 024°39'0 0.0
2015-May-22 19:33N 59°28' E 024°39'0 0.0
2015-May-22 18:33N 59°28' E 024°39'0 0.0
2015-May-22 17:33N 59°28' E 024°39'0 0.0
2015-May-22 16:33N 59°28' E 024°39'0 0.0
2015-May-22 15:33N 59°28' E 024°39'0 0.0
2015-May-22 14:33N 59°28' E 024°39'0 0.0
2015-May-22 13:33N 59°28' E 024°39'0 0.0
2015-May-22 12:33N 59°28' E 024°39'3 3.2
2015-May-22 11:33N 59°30' E 024°35'7 7.0
2015-May-22 10:33N 59°30' E 024°49'0 0.2
2015-May-22 09:33N 59°30' E 024°49'0 0.0
2015-May-22 08:33N 59°30' E 024°49'0 0.0
2015-May-22 07:33N 59°30' E 024°49'0 0.0
2015-May-22 06:33N 59°30' E 024°49'0 0.0
2015-May-22 05:33N 59°30' E 024°49'0 0.0
2015-May-22 04:33N 59°30' E 024°49'4 3.7
2015-May-22 03:33N 59°28' E 024°43'0 0.0
2015-May-22 02:33N 59°28' E 024°43'0 0.0
2015-May-22 01:33N 59°28' E 024°43'0 0.0
2015-May-22 00:33N 59°28' E 024°43'0 0.0
2015-May-21 23:33N 59°28' E 024°43'0 0.0
2015-May-21 22:33N 59°28' E 024°43'0 0.0
2015-May-21 21:33N 59°28' E 024°43'0 0.0
2015-May-21 20:33N 59°28' E 024°43'0 0.0
2015-May-21 19:31N 59°28' E 024°43'0 0.0
2015-May-21 18:31N 59°28' E 024°43'0 0.0
2015-May-21 17:29N 59°28' E 024°43'0 0.0
2015-May-21 16:33N 59°28' E 024°43'0 0.0
2015-May-21 15:33N 59°28' E 024°43'4 3.8
2015-May-21 14:33N 59°30' E 024°37'2 0.1
2015-May-21 02:32N 59°30' E 024°34'5 5.3
2015-May-21 01:33N 59°28' E 024°43'0 0.0
2015-May-21 00:33N 59°28' E 024°43'0 0.0
2015-May-20 23:33N 59°28' E 024°43'0 0.0
2015-May-20 22:33N 59°28' E 024°43'0 0.0
2015-May-20 21:33N 59°28' E 024°43'0 0.0
2015-May-20 20:33N 59°28' E 024°43'0 0.0
2015-May-20 19:33N 59°28' E 024°43'0 0.0
2015-May-20 18:33N 59°28' E 024°43'0 0.0
2015-May-20 17:33N 59°28' E 024°43'0 0.0
2015-May-20 16:32N 59°28' E 024°43'0 0.0
2015-May-20 15:33N 59°28' E 024°43'0 0.0
2015-May-20 14:33N 59°28' E 024°43'0 0.0
2015-May-20 13:33N 59°28' E 024°43'0 0.0
2015-May-20 12:33N 59°28' E 024°43'0 0.0
2015-May-20 11:33N 59°28' E 024°43'0 0.0
2015-May-20 10:33N 59°28' E 024°43'4 3.6
2015-May-20 09:33N 59°30' E 024°38'3 3.1
2015-May-20 08:33N 59°29' E 024°32'0 0.0
2015-May-20 07:31N 59°29' E 024°32'0 0.0
2015-May-20 06:20N 59°29' E 024°32'0 0.1
2015-May-20 05:33N 59°29' E 024°32'1 0.6
2015-May-20 04:32N 59°29' E 024°33'5 5.3
2015-May-20 03:33N 59°28' E 024°43'0 0.1
2015-May-20 02:33N 59°28' E 024°43'0 0.0
2015-May-20 01:33N 59°28' E 024°43'0 0.0
2015-May-20 00:33N 59°28' E 024°43'0 0.0
2015-May-19 23:33N 59°28' E 024°43'0 0.0
2015-May-19 22:33N 59°28' E 024°43'0 0.0
2015-May-19 21:33N 59°28' E 024°43'0 0.0
2015-May-19 20:33N 59°28' E 024°43'0 0.0
2015-May-19 19:33N 59°28' E 024°43'0 0.0
2015-May-19 18:33N 59°28' E 024°43'0 0.0
2015-May-19 17:33N 59°28' E 024°43'3 3.4
2015-May-19 16:33N 59°30' E 024°48'0 0.3
2015-May-19 15:33N 59°30' E 024°49'0 0.0
2015-May-19 14:33N 59°30' E 024°49'0 0.0
2015-May-19 13:33N 59°30' E 024°49'0 0.0
2015-May-19 12:33N 59°30' E 024°49'0 0.0
2015-May-19 11:33N 59°30' E 024°49'0 0.0
2015-May-19 10:33N 59°30' E 024°49'1 1.1
2015-May-19 09:33N 59°29' E 024°47'3 2.6
2015-May-19 08:33N 59°28' E 024°43'0 0.0
2015-May-19 07:33N 59°28' E 024°43'0 0.0
2015-May-19 06:33N 59°28' E 024°43'0 0.0
2015-May-19 05:32N 59°28' E 024°43'0 0.0
2015-May-19 04:33N 59°28' E 024°43'0 0.0
2015-May-19 03:33N 59°28' E 024°43'0 0.0
2015-May-19 02:33N 59°28' E 024°43'0 0.0
2015-May-19 01:33N 59°28' E 024°43'0 0.0
2015-May-19 00:33N 59°28' E 024°43'0 0.0
2015-May-18 23:33N 59°28' E 024°43'1 0.9
2015-May-18 22:33N 59°28' E 024°44'6 5.2
2015-May-18 21:23N 59°29' E 024°32'0 0.1
2015-May-18 20:33N 59°29' E 024°32'0 0.0
2015-May-18 19:33N 59°29' E 024°32'0 0.0
2015-May-18 18:33N 59°29' E 024°32'0 0.3
2015-May-18 17:30N 59°29' E 024°32'0 0.0
2015-May-18 16:33N 59°29' E 024°32'0 0.0
2015-May-18 15:32N 59°29' E 024°32'0 0.0
2015-May-18 14:08N 59°29' E 024°32'3 3.9
2015-May-18 13:23N 59°30' E 024°37'5 6.6
2015-May-18 12:33N 59°27' E 024°47'0 0.1
2015-May-18 11:33N 59°27' E 024°47'0 0.0
2015-May-18 10:32N 59°27' E 024°47'0 0.0
2015-May-18 09:33N 59°27' E 024°47'0 0.0
2015-May-18 08:33N 59°27' E 024°47'4 4.0
2015-May-18 07:33N 59°30' E 024°42'3 2.8
2015-May-18 06:32N 59°28' E 024°39'0 0.0
2015-May-18 05:33N 59°28' E 024°39'0 0.0
2015-May-18 04:33N 59°28' E 024°39'0 0.0
2015-May-18 03:33N 59°28' E 024°39'0 0.0
2015-May-18 02:33N 59°28' E 024°39'0 0.0
2015-May-18 01:33N 59°28' E 024°39'0 0.0
2015-May-18 00:33N 59°28' E 024°39'0 0.0
2015-May-17 23:33N 59°28' E 024°39'0 0.0
2015-May-17 22:33N 59°28' E 024°39'0 0.0
2015-May-17 21:33N 59°28' E 024°39'0 0.0
2015-May-17 20:33N 59°28' E 024°39'3 3.4
2015-May-17 19:33N 59°31' E 024°38'7 7.2
2015-May-17 18:33N 59°37' E 024°46'2 2.4
2015-May-17 17:33N 59°35' E 024°49'0 0.1
2015-May-17 16:33N 59°35' E 024°49'0 0.1
2015-May-17 15:33N 59°35' E 024°49'1 1.2
2015-May-17 14:33N 59°36' E 024°47'6 5.9
2015-May-17 13:33N 59°30' E 024°46'4 3.6
2015-May-17 12:33N 59°27' E 024°46'0 0.0
2015-May-17 11:33N 59°27' E 024°46'0 0.0
2015-May-17 10:33N 59°27' E 024°46'0 0.0
2015-May-17 09:33N 59°27' E 024°46'0 0.0
2015-May-17 08:33N 59°27' E 024°46'1 0.9
2015-May-17 07:33N 59°28' E 024°46'0 0.0
2015-May-17 06:33N 59°28' E 024°46'2 1.5
2015-May-17 05:33N 59°29' E 024°44'26 5.9
2015-May-17 01:10N 59°22' E 023°55'0 0.0
2015-May-16 23:20N 59°22' E 023°55'21 3.1
2015-May-16 16:33N 59°30' E 024°33'5 5.3
2015-May-16 15:33N 59°28' E 024°43'0 0.0
2015-May-16 14:33N 59°28' E 024°43'0 0.0
2015-May-16 13:33N 59°28' E 024°43'0 0.0
2015-May-16 12:33N 59°28' E 024°43'0 0.0
2015-May-16 11:33N 59°28' E 024°43'0 0.0
2015-May-16 10:33N 59°28' E 024°43'1 1.1
2015-May-16 09:33N 59°28' E 024°45'0 0.0
2015-May-16 08:33N 59°28' E 024°45'0 0.0
2015-May-16 07:33N 59°28' E 024°45'1 1.1
2015-May-16 06:33N 59°28' E 024°43'0 0.0
2015-May-16 05:33N 59°28' E 024°43'0 0.0
2015-May-16 04:33N 59°28' E 024°43'0 0.0
2015-May-16 03:33N 59°28' E 024°43'0 0.0
2015-May-16 02:33N 59°28' E 024°43'0 0.0
2015-May-16 01:33N 59°28' E 024°43'0 0.0
2015-May-16 00:33N 59°28' E 024°43'0 0.0
2015-May-15 23:33N 59°28' E 024°43'0 0.0
2015-May-15 22:33N 59°28' E 024°43'0 0.0
2015-May-15 21:33N 59°28' E 024°43'0 0.0
2015-May-15 20:33N 59°28' E 024°43'0 0.0
2015-May-15 19:33N 59°28' E 024°43'0 0.2
2015-May-15 18:33N 59°28' E 024°43'2 2.2
2015-May-15 17:33N 59°28' E 024°39'0 0.2
2015-May-15 16:33N 59°28' E 024°39'0 0.0
2015-May-15 15:33N 59°28' E 024°39'0 0.0
2015-May-15 14:33N 59°28' E 024°39'0 0.0
2015-May-15 13:33N 59°28' E 024°39'  
Track history (hours):
 
Tides and Currents Weather Stations Pressure Air Temp Water Temp Dewpoint Dewpoint Depression Visibility Wind Speed Wind Dir Waves Ship Positions

Viimsi

Last reported at 2015-May-25 13:33 UTC. Time now 2015-May-25 23:43 UTC.
Position N 59°35' E 024°52'.

Length 78 m; draft 4.5 m.

Type: Ship. MMSI: 276297000.

Date/timePositionNaut miles runAvg speedWind from/ knotsBaromVisibWave heightAir tempDewpointWater temp
2015-May-25 13:33N 59°35' E 024°52'5 4.4
2015-May-25 12:29N 59°32' E 024°44'6 6.3
2015-May-25 11:33N 59°27' E 024°46'0 0.0
2015-May-25 10:33N 59°27' E 024°46'0 0.0
2015-May-25 09:33N 59°27' E 024°46'0 0.0
2015-May-25 08:27N 59°27' E 024°46'1 1.4
2015-May-25 07:30N 59°28' E 024°44'1 0.8
2015-May-25 06:33N 59°28' E 024°43'0 0.0
2015-May-25 05:32N 59°28' E 024°43'0 0.0
2015-May-25 04:33N 59°28' E 024°43'0 0.0
2015-May-25 03:33N 59°28' E 024°43'0 0.0
2015-May-25 02:33N 59°28' E 024°43'0 0.0
2015-May-25 01:33N 59°28' E 024°43'0 0.0
2015-May-25 00:33N 59°28' E 024°43'0 0.0
2015-May-24 23:33N 59°28' E 024°43'0 0.0
2015-May-24 22:33N 59°28' E 024°43'0 0.0
2015-May-24 21:33N 59°28' E 024°43'0 0.0
2015-May-24 20:33N 59°28' E 024°43'0 0.0
2015-May-24 19:33N 59°28' E 024°43'3 3.0
2015-May-24 18:33N 59°29' E 024°37'1 1.4
2015-May-24 17:33N 59°28' E 024°39'0 0.0
2015-May-24 16:33N 59°28' E 024°39'0 0.0
2015-May-24 15:33N 59°28' E 024°39'0 0.0
2015-May-24 14:30N 59°28' E 024°39'0 0.0
2015-May-24 13:33N 59°28' E 024°39'3 2.9
2015-May-24 12:33N 59°29' E 024°44'3 2.7
2015-May-24 11:25N 59°27' E 024°46'0 0.0
2015-May-24 10:33N 59°27' E 024°46'0 0.0
2015-May-24 09:24N 59°27' E 024°46'0 0.0
2015-May-24 08:27N 59°27' E 024°46'1 0.8
2015-May-24 07:32N 59°27' E 024°46'2 1.4
2015-May-24 06:25N 59°28' E 024°43'0 0.0
2015-May-24 05:24N 59°28' E 024°43'0 0.0
2015-May-24 04:20N 59°28' E 024°43'0 0.0
2015-May-24 03:33N 59°28' E 024°43'0 0.0
2015-May-24 02:33N 59°28' E 024°43'0 0.0
2015-May-24 01:33N 59°28' E 024°43'0 0.0
2015-May-24 00:33N 59°28' E 024°43'0 0.0
2015-May-23 23:33N 59°28' E 024°43'0 0.0
2015-May-23 22:33N 59°28' E 024°43'0 0.0
2015-May-23 21:33N 59°28' E 024°43'0 0.0
2015-May-23 20:33N 59°28' E 024°43'0 0.0
2015-May-23 19:33N 59°28' E 024°43'0 0.0
2015-May-23 18:33N 59°28' E 024°43'0 0.0
2015-May-23 17:33N 59°28' E 024°43'0 0.0
2015-May-23 16:33N 59°28' E 024°43'0 0.0
2015-May-23 15:33N 59°28' E 024°43'0 0.0
2015-May-23 14:33N 59°28' E 024°43'0 0.0
2015-May-23 13:33N 59°28' E 024°43'0 0.0
2015-May-23 12:33N 59°28' E 024°43'0 0.0
2015-May-23 11:33N 59°28' E 024°43'0 0.0
2015-May-23 10:33N 59°28' E 024°43'0 0.0
2015-May-23 09:33N 59°28' E 024°43'0 0.0
2015-May-23 08:33N 59°28' E 024°43'0 0.0
2015-May-23 07:33N 59°28' E 024°43'0 0.0
2015-May-23 06:33N 59°28' E 024°43'2 2.3
2015-May-23 05:33N 59°30' E 024°43'6 3.0
2015-May-23 03:33N 59°29' E 024°31'0 0.0
2015-May-23 02:33N 59°29' E 024°31'0 0.0
2015-May-23 01:33N 59°29' E 024°31'4 3.7
2015-May-23 00:33N 59°28' E 024°38'1 0.6
2015-May-22 23:33N 59°28' E 024°39'0 0.0
2015-May-22 22:33N 59°28' E 024°39'0 0.0
2015-May-22 21:33N 59°28' E 024°39'0 0.0
2015-May-22 20:33N 59°28' E 024°39'0 0.0
2015-May-22 19:33N 59°28' E 024°39'0 0.0
2015-May-22 18:33N 59°28' E 024°39'0 0.0
2015-May-22 17:33N 59°28' E 024°39'0 0.0
2015-May-22 16:33N 59°28' E 024°39'0 0.0
2015-May-22 15:33N 59°28' E 024°39'0 0.0
2015-May-22 14:33N 59°28' E 024°39'0 0.0
2015-May-22 13:33N 59°28' E 024°39'0 0.0
2015-May-22 12:33N 59°28' E 024°39'3 3.2
2015-May-22 11:33N 59°30' E 024°35'7 7.0
2015-May-22 10:33N 59°30' E 024°49'0 0.2
2015-May-22 09:33N 59°30' E 024°49'0 0.0
2015-May-22 08:33N 59°30' E 024°49'0 0.0
2015-May-22 07:33N 59°30' E 024°49'0 0.0
2015-May-22 06:33N 59°30' E 024°49'0 0.0
2015-May-22 05:33N 59°30' E 024°49'0 0.0
2015-May-22 04:33N 59°30' E 024°49'4 3.7
2015-May-22 03:33N 59°28' E 024°43'0 0.0
2015-May-22 02:33N 59°28' E 024°43'0 0.0
2015-May-22 01:33N 59°28' E 024°43'0 0.0
2015-May-22 00:33N 59°28' E 024°43'0 0.0
2015-May-21 23:33N 59°28' E 024°43'0 0.0
2015-May-21 22:33N 59°28' E 024°43'0 0.0
2015-May-21 21:33N 59°28' E 024°43'0 0.0
2015-May-21 20:33N 59°28' E 024°43'0 0.0
2015-May-21 19:31N 59°28' E 024°43'0 0.0
2015-May-21 18:31N 59°28' E 024°43'0 0.0
2015-May-21 17:29N 59°28' E 024°43'0 0.0
2015-May-21 16:33N 59°28' E 024°43'0 0.0
2015-May-21 15:33N 59°28' E 024°43'4 3.8
2015-May-21 14:33N 59°30' E 024°37'2 0.1
2015-May-21 02:32N 59°30' E 024°34'5 5.3
2015-May-21 01:33N 59°28' E 024°43'0 0.0
2015-May-21 00:33N 59°28' E 024°43'0 0.0
2015-May-20 23:33N 59°28' E 024°43'0 0.0
2015-May-20 22:33N 59°28' E 024°43'0 0.0
2015-May-20 21:33N 59°28' E 024°43'0 0.0
2015-May-20 20:33N 59°28' E 024°43'0 0.0
2015-May-20 19:33N 59°28' E 024°43'0 0.0
2015-May-20 18:33N 59°28' E 024°43'0 0.0
2015-May-20 17:33N 59°28' E 024°43'0 0.0
2015-May-20 16:32N 59°28' E 024°43'0 0.0
2015-May-20 15:33N 59°28' E 024°43'0 0.0
2015-May-20 14:33N 59°28' E 024°43'0 0.0
2015-May-20 13:33N 59°28' E 024°43'0 0.0
2015-May-20 12:33N 59°28' E 024°43'0 0.0
2015-May-20 11:33N 59°28' E 024°43'0 0.0
2015-May-20 10:33N 59°28' E 024°43'4 3.6
2015-May-20 09:33N 59°30' E 024°38'3 3.1
2015-May-20 08:33N 59°29' E 024°32'0 0.0
2015-May-20 07:31N 59°29' E 024°32'0 0.0
2015-May-20 06:20N 59°29' E 024°32'0 0.1
2015-May-20 05:33N 59°29' E 024°32'1 0.6
2015-May-20 04:32N 59°29' E 024°33'5 5.3
2015-May-20 03:33N 59°28' E 024°43'0 0.1
2015-May-20 02:33N 59°28' E 024°43'0 0.0
2015-May-20 01:33N 59°28' E 024°43'0 0.0
2015-May-20 00:33N 59°28' E 024°43'0 0.0
2015-May-19 23:33N 59°28' E 024°43'0 0.0
2015-May-19 22:33N 59°28' E 024°43'0 0.0
2015-May-19 21:33N 59°28' E 024°43'0 0.0
2015-May-19 20:33N 59°28' E 024°43'0 0.0
2015-May-19 19:33N 59°28' E 024°43'0 0.0
2015-May-19 18:33N 59°28' E 024°43'0 0.0
2015-May-19 17:33N 59°28' E 024°43'3 3.4
2015-May-19 16:33N 59°30' E 024°48'0 0.3
2015-May-19 15:33N 59°30' E 024°49'0 0.0
2015-May-19 14:33N 59°30' E 024°49'0 0.0
2015-May-19 13:33N 59°30' E 024°49'0 0.0
2015-May-19 12:33N 59°30' E 024°49'0 0.0
2015-May-19 11:33N 59°30' E 024°49'0 0.0
2015-May-19 10:33N 59°30' E 024°49'1 1.1
2015-May-19 09:33N 59°29' E 024°47'3 2.6
2015-May-19 08:33N 59°28' E 024°43'0 0.0
2015-May-19 07:33N 59°28' E 024°43'0 0.0
2015-May-19 06:33N 59°28' E 024°43'0 0.0
2015-May-19 05:32N 59°28' E 024°43'0 0.0
2015-May-19 04:33N 59°28' E 024°43'0 0.0
2015-May-19 03:33N 59°28' E 024°43'0 0.0
2015-May-19 02:33N 59°28' E 024°43'0 0.0
2015-May-19 01:33N 59°28' E 024°43'0 0.0
2015-May-19 00:33N 59°28' E 024°43'0 0.0
2015-May-18 23:33N 59°28' E 024°43'1 0.9
2015-May-18 22:33N 59°28' E 024°44'6 5.2
2015-May-18 21:23N 59°29' E 024°32'0 0.1
2015-May-18 20:33N 59°29' E 024°32'0 0.0
2015-May-18 19:33N 59°29' E 024°32'0 0.0
2015-May-18 18:33N 59°29' E 024°32'0 0.3
2015-May-18 17:30N 59°29' E 024°32'0 0.0
2015-May-18 16:33N 59°29' E 024°32'0 0.0
2015-May-18 15:32N 59°29' E 024°32'0 0.0
2015-May-18 14:08N 59°29' E 024°32'3 3.9
2015-May-18 13:23N 59°30' E 024°37'5 6.6
2015-May-18 12:33N 59°27' E 024°47'0 0.1
2015-May-18 11:33N 59°27' E 024°47'0 0.0
2015-May-18 10:32N 59°27' E 024°47'0 0.0
2015-May-18 09:33N 59°27' E 024°47'0 0.0
2015-May-18 08:33N 59°27' E 024°47'4 4.0
2015-May-18 07:33N 59°30' E 024°42'3 2.8
2015-May-18 06:32N 59°28' E 024°39'0 0.0
2015-May-18 05:33N 59°28' E 024°39'0 0.0
2015-May-18 04:33N 59°28' E 024°39'0 0.0
2015-May-18 03:33N 59°28' E 024°39'0 0.0
2015-May-18 02:33N 59°28' E 024°39'0 0.0
2015-May-18 01:33N 59°28' E 024°39'0 0.0
2015-May-18 00:33N 59°28' E 024°39'0 0.0
2015-May-17 23:33N 59°28' E 024°39'0 0.0
2015-May-17 22:33N 59°28' E 024°39'0 0.0
2015-May-17 21:33N 59°28' E 024°39'0 0.0
2015-May-17 20:33N 59°28' E 024°39'3 3.4
2015-May-17 19:33N 59°31' E 024°38'7 7.2
2015-May-17 18:33N 59°37' E 024°46'2 2.4
2015-May-17 17:33N 59°35' E 024°49'0 0.1
2015-May-17 16:33N 59°35' E 024°49'0 0.1
2015-May-17 15:33N 59°35' E 024°49'1 1.2
2015-May-17 14:33N 59°36' E 024°47'6 5.9
2015-May-17 13:33N 59°30' E 024°46'4 3.6
2015-May-17 12:33N 59°27' E 024°46'0 0.0
2015-May-17 11:33N 59°27' E 024°46'0 0.0
2015-May-17 10:33N 59°27' E 024°46'0 0.0
2015-May-17 09:33N 59°27' E 024°46'0 0.0
2015-May-17 08:33N 59°27' E 024°46'1 0.9
2015-May-17 07:33N 59°28' E 024°46'0 0.0
2015-May-17 06:33N 59°28' E 024°46'2 1.5
2015-May-17 05:33N 59°29' E 024°44'26 5.9
2015-May-17 01:10N 59°22' E 023°55'0 0.0
2015-May-16 23:20N 59°22' E 023°55'21 3.1
2015-May-16 16:33N 59°30' E 024°33'5 5.3
2015-May-16 15:33N 59°28' E 024°43'0 0.0
2015-May-16 14:33N 59°28' E 024°43'0 0.0
2015-May-16 13:33N 59°28' E 024°43'0 0.0
2015-May-16 12:33N 59°28' E 024°43'0 0.0
2015-May-16 11:33N 59°28' E 024°43'0 0.0
2015-May-16 10:33N 59°28' E 024°43'1 1.1
2015-May-16 09:33N 59°28' E 024°45'0 0.0
2015-May-16 08:33N 59°28' E 024°45'0 0.0
2015-May-16 07:33N 59°28' E 024°45'1 1.1
2015-May-16 06:33N 59°28' E 024°43'0 0.0
2015-May-16 05:33N 59°28' E 024°43'0 0.0
2015-May-16 04:33N 59°28' E 024°43'0 0.0
2015-May-16 03:33N 59°28' E 024°43'0 0.0
2015-May-16 02:33N 59°28' E 024°43'0 0.0
2015-May-16 01:33N 59°28' E 024°43'0 0.0
2015-May-16 00:33N 59°28' E 024°43'0 0.0
2015-May-15 23:33N 59°28' E 024°43'0 0.0
2015-May-15 22:33N 59°28' E 024°43'0 0.0
2015-May-15 21:33N 59°28' E 024°43'0 0.0
2015-May-15 20:33N 59°28' E 024°43'0 0.0
2015-May-15 19:33N 59°28' E 024°43'0 0.2
2015-May-15 18:33N 59°28' E 024°43'2 2.2
2015-May-15 17:33N 59°28' E 024°39'0 0.2
2015-May-15 16:33N 59°28' E 024°39'0 0.0
2015-May-15 15:33N 59°28' E 024°39'0 0.0
2015-May-15 14:33N 59°28' E 024°39'0 0.0
2015-May-15 13:33N 59°28' E 024°39'  

Dump ship's entire track history